createdAt,value
2024-02-10T00:01:29.235Z,12.69
2024-02-10T00:03:58.183Z,12.52
2024-02-10T00:06:25.242Z,12.59
2024-02-10T00:08:52.306Z,12.55
2024-02-10T00:11:19.209Z,12.44
2024-02-10T00:13:46.159Z,12.46
2024-02-10T00:16:13.160Z,12.45
2024-02-10T00:18:42.306Z,12.46
2024-02-10T00:21:09.503Z,12.45
2024-02-10T00:23:36.513Z,12.52
2024-02-10T00:26:05.753Z,12.43
2024-02-10T00:28:36.559Z,12.49
2024-02-10T00:31:03.601Z,12.45
2024-02-10T00:33:32.158Z,12.57
2024-02-10T00:35:59.209Z,12.70
2024-02-10T00:38:26.192Z,12.62
2024-02-10T00:40:53.263Z,12.59
2024-02-10T00:43:20.924Z,12.45
2024-02-10T00:45:48.599Z,12.48
2024-02-10T00:48:16.004Z,12.48
2024-02-10T00:50:43.983Z,12.56
2024-02-10T00:53:10.983Z,12.50
2024-02-10T00:55:37.944Z,12.43
2024-02-10T00:58:07.751Z,12.41
2024-02-10T01:00:35.679Z,12.28
2024-02-10T01:03:03.892Z,12.37
2024-02-10T01:05:31.622Z,12.24
2024-02-10T01:08:01.174Z,12.38
2024-02-10T01:10:32.362Z,12.42
2024-02-10T01:13:04.926Z,12.34
2024-02-10T01:15:34.056Z,12.42
2024-02-10T01:18:05.594Z,12.48
2024-02-10T01:20:32.578Z,12.50
2024-02-10T01:23:01.108Z,12.42
2024-02-10T01:25:32.015Z,12.42
2024-02-10T01:27:59.942Z,12.42
2024-02-10T01:30:27.998Z,12.36
2024-02-10T01:33:00.167Z,12.49
2024-02-10T01:35:27.590Z,12.38
2024-02-10T01:37:54.558Z,12.43
2024-02-10T01:40:21.510Z,12.42
2024-02-10T01:42:48.409Z,12.47
2024-02-10T01:45:15.890Z,12.26
2024-02-10T01:47:46.945Z,12.36
2024-02-10T01:50:14.778Z,12.41
2024-02-10T01:52:42.147Z,12.29
2024-02-10T01:55:11.116Z,12.31
2024-02-10T01:57:38.570Z,12.32
2024-02-10T02:00:06.857Z,12.28
2024-02-10T02:02:36.747Z,12.39
2024-02-10T02:05:06.808Z,12.32
2024-02-10T02:07:34.252Z,12.20
2024-02-10T02:10:02.557Z,12.40
2024-02-10T02:12:30.122Z,12.17
2024-02-10T02:14:58.859Z,12.22
2024-02-10T02:17:26.563Z,12.18
2024-02-10T02:19:53.937Z,12.29
2024-02-10T02:22:21.502Z,12.34
2024-02-10T02:24:48.984Z,12.36
2024-02-10T02:27:16.698Z,12.20
2024-02-10T02:29:43.870Z,12.27
2024-02-10T02:32:12.183Z,12.20
2024-02-10T02:34:39.763Z,12.11
2024-02-10T02:37:08.635Z,12.15
2024-02-10T02:39:37.523Z,12.14
2024-02-10T02:42:07.021Z,12.23
2024-02-10T02:44:34.346Z,12.31
2024-02-10T02:47:06.994Z,12.25
2024-02-10T02:49:39.145Z,12.45
2024-02-10T02:52:09.107Z,12.35
2024-02-10T02:54:36.938Z,12.22
2024-02-10T02:57:06.241Z,12.42
2024-02-10T02:59:33.130Z,12.39
2024-02-10T03:02:03.944Z,12.39
2024-02-10T03:04:30.973Z,12.39
2024-02-10T03:06:58.993Z,12.25
2024-02-10T03:09:25.914Z,12.19
2024-02-10T03:11:52.799Z,12.22
2024-02-10T03:14:19.734Z,12.29
2024-02-10T03:16:46.950Z,12.07
2024-02-10T03:19:13.940Z,12.16
2024-02-10T03:21:40.777Z,12.11
2024-02-10T03:24:07.526Z,12.00
2024-02-10T03:26:36.982Z,12.13
2024-02-10T03:29:04.067Z,12.11
2024-02-10T03:31:31.331Z,12.00
2024-02-10T03:33:58.528Z,11.96
2024-02-10T03:36:28.649Z,12.08
2024-02-10T03:38:56.102Z,12.00
2024-02-10T03:41:23.177Z,12.04
2024-02-10T03:43:50.186Z,12.13
2024-02-10T03:46:23.149Z,12.12
2024-02-10T03:48:51.502Z,12.19
2024-02-10T03:51:18.405Z,12.12
2024-02-10T03:53:45.223Z,12.15
2024-02-10T03:56:12.027Z,12.08
2024-02-10T03:58:42.928Z,12.19
2024-02-10T04:01:16.804Z,12.34
2024-02-10T04:03:47.362Z,12.31
2024-02-10T04:06:17.701Z,12.22
2024-02-10T04:08:48.429Z,12.06
2024-02-10T04:11:18.439Z,12.02
2024-02-10T04:13:46.122Z,12.04
2024-02-10T04:16:14.242Z,12.09
2024-02-10T04:18:42.383Z,12.24
2024-02-10T04:21:10.258Z,12.44
2024-02-10T04:23:40.556Z,12.04
2024-02-10T04:26:07.442Z,12.41
2024-02-10T04:28:37.508Z,12.41
2024-02-10T04:31:06.734Z,12.28
2024-02-10T04:33:33.682Z,12.31
2024-02-10T04:36:00.650Z,12.12
2024-02-10T04:38:27.650Z,12.10
2024-02-10T04:40:55.027Z,12.07
2024-02-10T04:43:22.146Z,11.97
2024-02-10T04:45:50.565Z,12.01
2024-02-10T04:48:21.683Z,12.02
2024-02-10T04:50:48.966Z,11.88
2024-02-10T04:53:18.932Z,11.70
2024-02-10T04:55:46.293Z,11.63
2024-02-10T04:58:14.878Z,11.56
2024-02-10T05:00:42.573Z,11.46
2024-02-10T05:03:09.835Z,11.57
2024-02-10T05:05:36.985Z,11.21
2024-02-10T05:08:04.179Z,11.42
2024-02-10T05:10:31.193Z,11.34
2024-02-10T05:12:58.481Z,11.29
2024-02-10T05:15:27.047Z,11.28
2024-02-10T05:17:55.007Z,11.17
2024-02-10T05:20:24.075Z,11.10
2024-02-10T05:22:52.731Z,11.23
2024-02-10T05:25:21.248Z,11.21
2024-02-10T05:27:51.839Z,11.04
2024-02-10T05:30:25.938Z,11.01
2024-02-10T05:32:54.333Z,11.29
2024-02-10T05:35:21.705Z,11.39
2024-02-10T05:37:55.315Z,11.41
2024-02-10T05:40:23.225Z,11.35
2024-02-10T05:42:54.195Z,11.28
2024-02-10T05:45:21.808Z,11.30
2024-02-10T05:47:52.419Z,11.28
2024-02-10T05:50:24.333Z,11.38
2024-02-10T05:52:52.881Z,11.41
2024-02-10T05:55:22.995Z,11.37
2024-02-10T05:57:50.051Z,11.48
2024-02-10T06:00:17.624Z,11.66
2024-02-10T06:02:44.502Z,11.50
2024-02-10T06:05:15.526Z,11.62
2024-02-10T06:07:43.652Z,11.48
2024-02-10T06:10:14.048Z,11.77
2024-02-10T06:12:50.180Z,11.57
2024-02-10T06:15:20.623Z,11.49
2024-02-10T06:17:50.222Z,11.44
2024-02-10T06:20:17.313Z,11.58
2024-02-10T06:22:49.540Z,11.60
2024-02-10T06:25:17.092Z,11.56
2024-02-10T06:27:47.132Z,11.68
2024-02-10T06:30:18.551Z,11.77
2024-02-10T06:32:46.051Z,11.76
2024-02-10T06:35:13.964Z,11.81
2024-02-10T06:37:52.891Z,11.73
2024-02-10T06:40:20.120Z,11.92
2024-02-10T06:42:51.982Z,11.87
2024-02-10T06:45:23.399Z,11.84
2024-02-10T06:47:53.902Z,12.00
2024-02-10T06:50:30.057Z,12.05
2024-02-10T06:53:01.699Z,12.10
2024-02-10T06:55:29.859Z,12.29
2024-02-10T06:57:57.472Z,12.26
2024-02-10T07:00:24.654Z,12.33
2024-02-10T07:02:53.048Z,12.37
2024-02-10T07:05:21.322Z,12.62
2024-02-10T07:07:50.105Z,12.74
2024-02-10T07:10:21.790Z,12.79
2024-02-10T07:12:50.594Z,12.96
2024-02-10T07:15:19.983Z,12.89
2024-02-10T07:17:48.927Z,13.46
2024-02-10T07:20:26.908Z,13.70
2024-02-10T07:22:57.812Z,13.84
2024-02-10T07:25:26.952Z,13.84
2024-02-10T07:27:54.689Z,14.21
2024-02-10T07:30:22.077Z,14.06
2024-02-10T07:32:49.522Z,13.99
2024-02-10T07:35:17.836Z,13.90
2024-02-10T07:37:46.244Z,14.03
2024-02-10T07:40:13.483Z,14.38
2024-02-10T07:42:40.687Z,14.49
2024-02-10T07:45:08.041Z,14.84
2024-02-10T07:47:35.220Z,14.59
2024-02-10T07:50:04.556Z,14.58
2024-02-10T07:52:33.113Z,14.77
2024-02-10T07:55:00.481Z,14.65
2024-02-10T07:57:27.907Z,14.55
2024-02-10T07:59:56.008Z,14.66
2024-02-10T08:02:26.814Z,14.53
2024-02-10T08:04:59.202Z,14.36
2024-02-10T08:07:31.714Z,14.34
2024-02-10T08:09:59.703Z,14.08
2024-02-10T08:12:27.817Z,14.38
2024-02-10T08:14:56.077Z,14.49
2024-02-10T08:17:25.550Z,14.41
2024-02-10T08:19:52.729Z,14.56
2024-02-10T08:22:20.327Z,14.73
2024-02-10T08:24:48.731Z,14.95
2024-02-10T08:27:16.502Z,15.07
2024-02-10T08:29:44.069Z,14.90
2024-02-10T08:32:17.537Z,14.79
2024-02-10T08:34:44.657Z,15.05
2024-02-10T08:37:13.628Z,15.29
2024-02-10T08:39:41.541Z,15.49
2024-02-10T08:42:11.279Z,15.81
2024-02-10T08:44:38.473Z,15.71
2024-02-10T08:47:07.659Z,15.95
2024-02-10T08:49:39.637Z,15.70
2024-02-10T08:52:16.493Z,15.16
2024-02-10T08:54:44.774Z,15.16
2024-02-10T08:57:11.802Z,15.36
2024-02-10T08:59:43.350Z,15.09
2024-02-10T09:02:10.953Z,14.81
2024-02-10T09:04:41.694Z,14.59
2024-02-10T09:07:09.263Z,14.68
2024-02-10T09:09:36.804Z,15.30
2024-02-10T09:12:04.419Z,16.19
2024-02-10T09:14:31.400Z,16.49
2024-02-10T09:16:58.590Z,16.75
2024-02-10T09:19:25.657Z,17.24
2024-02-10T09:21:59.588Z,17.23
2024-02-10T09:24:27.925Z,17.51
2024-02-10T09:26:55.931Z,17.33
2024-02-10T09:29:22.998Z,17.73
2024-02-10T09:31:54.068Z,17.96
2024-02-10T09:34:23.797Z,18.14
2024-02-10T09:36:50.732Z,18.01
2024-02-10T09:39:17.565Z,17.91
2024-02-10T09:41:44.625Z,18.05
2024-02-10T09:44:12.769Z,17.93
2024-02-10T09:46:40.344Z,18.36
2024-02-10T09:49:11.311Z,18.47
2024-02-10T09:51:45.277Z,18.67
2024-02-10T09:54:15.260Z,18.19
2024-02-10T09:56:44.541Z,18.42
2024-02-10T09:59:15.861Z,17.52
2024-02-10T10:01:42.932Z,17.61
2024-02-10T10:04:13.812Z,17.70
2024-02-10T10:06:44.984Z,17.56
2024-02-10T10:09:19.576Z,17.61
2024-02-10T10:11:47.379Z,17.70
2024-02-10T10:14:18.493Z,17.92
2024-02-10T10:16:59.394Z,18.05
2024-02-10T10:19:31.304Z,17.84
2024-02-10T10:21:59.510Z,17.91
2024-02-10T10:24:27.590Z,18.29
2024-02-10T10:26:55.662Z,17.83
2024-02-10T10:29:23.254Z,17.81
2024-02-10T10:31:50.996Z,17.94
2024-02-10T10:34:21.532Z,17.92
2024-02-10T10:36:52.181Z,17.84
2024-02-10T10:39:19.419Z,18.02
2024-02-10T10:41:46.958Z,18.13
2024-02-10T10:44:18.299Z,18.20
2024-02-10T10:46:46.904Z,18.53
2024-02-10T10:49:15.655Z,18.83
2024-02-10T10:52:00.867Z,18.47
2024-02-10T10:54:35.320Z,18.41
2024-02-10T10:57:07.141Z,18.30
2024-02-10T10:59:38.420Z,18.36
2024-02-10T11:02:08.906Z,17.84
2024-02-10T11:04:36.308Z,18.27
2024-02-10T11:07:14.837Z,18.37
2024-02-10T11:09:47.791Z,18.00
2024-02-10T11:12:17.882Z,17.77
2024-02-10T11:14:55.321Z,17.94
2024-02-10T11:17:22.289Z,18.05
2024-02-10T11:20:04.986Z,18.00
2024-02-10T11:22:38.947Z,18.25
2024-02-10T11:25:17.674Z,17.80
2024-02-10T11:27:48.319Z,17.60
2024-02-10T11:30:15.303Z,17.49
2024-02-10T11:32:50.564Z,17.71
2024-02-10T11:35:17.762Z,17.54
2024-02-10T11:37:44.884Z,17.39
2024-02-10T11:40:17.122Z,17.45
2024-02-10T11:42:44.906Z,17.37
2024-02-10T11:45:12.318Z,17.58
2024-02-10T11:47:39.347Z,17.93
2024-02-10T11:50:07.978Z,17.54
2024-02-10T11:52:37.694Z,17.39
2024-02-10T11:55:05.654Z,17.81
2024-02-10T11:57:32.577Z,17.48
2024-02-10T11:59:59.612Z,17.33
2024-02-10T12:02:27.992Z,17.48
2024-02-10T12:04:55.197Z,17.76
2024-02-10T12:07:22.385Z,17.97
2024-02-10T12:09:49.385Z,17.55
2024-02-10T12:12:17.281Z,17.59
2024-02-10T12:14:44.338Z,17.73
2024-02-10T12:17:11.288Z,17.91
2024-02-10T12:19:41.862Z,17.98
2024-02-10T12:22:11.002Z,18.12
2024-02-10T12:24:39.106Z,17.92
2024-02-10T12:27:05.888Z,17.86
2024-02-10T12:29:32.816Z,18.24
2024-02-10T12:31:59.713Z,18.58
2024-02-10T12:34:27.017Z,18.69
2024-02-10T12:36:53.901Z,18.35
2024-02-10T12:39:21.368Z,18.54
2024-02-10T12:41:48.349Z,18.32
2024-02-10T12:44:15.231Z,18.29
2024-02-10T12:46:42.158Z,18.29
2024-02-10T12:49:09.929Z,18.36
2024-02-10T12:51:37.015Z,18.30
2024-02-10T12:54:03.945Z,18.25
2024-02-10T12:56:31.112Z,18.11
2024-02-10T12:58:58.623Z,18.56
2024-02-10T13:01:27.144Z,18.29
2024-02-10T13:03:54.191Z,18.15
2024-02-10T13:06:21.651Z,18.17
2024-02-10T13:08:50.813Z,17.97
2024-02-10T13:11:18.135Z,18.23
2024-02-10T13:13:46.011Z,18.82
2024-02-10T13:16:13.160Z,18.86
2024-02-10T13:18:45.382Z,18.92
2024-02-10T13:21:18.041Z,18.63
2024-02-10T13:23:45.683Z,18.70
2024-02-10T13:26:15.600Z,18.30
2024-02-10T13:28:44.641Z,17.98
2024-02-10T13:31:12.013Z,17.62
2024-02-10T13:33:42.274Z,17.59
2024-02-10T13:36:17.311Z,17.63
2024-02-10T13:39:02.731Z,17.66
2024-02-10T13:41:48.025Z,17.33
2024-02-10T13:44:33.326Z,17.28
2024-02-10T13:47:21.978Z,17.21
2024-02-10T13:50:07.490Z,17.16
2024-02-10T13:52:53.229Z,16.91
2024-02-10T13:55:38.969Z,16.99
2024-02-10T13:58:12.163Z,16.97
2024-02-10T14:00:42.249Z,16.97
2024-02-10T14:03:13.225Z,17.12
2024-02-10T14:05:53.876Z,16.97
2024-02-10T14:08:36.717Z,17.13
2024-02-10T14:11:21.787Z,17.14
2024-02-10T14:13:53.343Z,17.05
2024-02-10T14:16:29.654Z,17.20
2024-02-10T14:19:03.253Z,17.11
2024-02-10T14:21:40.199Z,17.29
2024-02-10T14:24:07.711Z,17.33
2024-02-10T14:26:53.446Z,17.25
2024-02-10T14:29:37.906Z,17.02
2024-02-10T14:32:12.021Z,17.30
2024-02-10T14:34:59.804Z,16.83
2024-02-10T14:37:45.946Z,16.93
2024-02-10T14:40:20.772Z,17.08
2024-02-10T14:42:48.890Z,17.08
2024-02-10T14:45:20.536Z,16.89
2024-02-10T14:47:47.445Z,16.96
2024-02-10T14:50:17.862Z,17.06
2024-02-10T14:52:45.927Z,17.23
2024-02-10T14:55:15.783Z,17.04
2024-02-10T14:57:44.000Z,16.90
2024-02-10T15:00:14.164Z,17.33
2024-02-10T15:02:41.593Z,17.42
2024-02-10T15:05:11.664Z,17.37
2024-02-10T15:07:38.703Z,17.22
2024-02-10T15:10:06.075Z,17.52
2024-02-10T15:12:32.890Z,17.35
2024-02-10T15:15:00.275Z,17.12
2024-02-10T15:17:27.445Z,17.13
2024-02-10T15:19:54.539Z,17.11
2024-02-10T15:22:21.481Z,16.94
2024-02-10T15:24:48.400Z,16.81
2024-02-10T15:27:16.831Z,16.56
2024-02-10T15:29:43.765Z,16.68
2024-02-10T15:32:11.195Z,16.73
2024-02-10T15:34:47.831Z,16.56
2024-02-10T15:37:18.710Z,16.65
2024-02-10T15:39:45.517Z,16.86
2024-02-10T15:42:12.655Z,16.92
2024-02-10T15:44:39.517Z,16.73
2024-02-10T15:47:06.428Z,16.95
2024-02-10T15:49:35.428Z,16.91
2024-02-10T15:52:02.239Z,17.10
2024-02-10T15:54:29.075Z,16.82
2024-02-10T15:56:59.634Z,17.23
2024-02-10T15:59:27.031Z,16.68
2024-02-10T16:01:55.613Z,17.12
2024-02-10T16:04:23.462Z,16.91
2024-02-10T16:06:51.206Z,16.94
2024-02-10T16:09:21.108Z,16.86
2024-02-10T16:11:48.024Z,16.70
2024-02-10T16:14:15.050Z,16.87
2024-02-10T16:16:42.052Z,16.89
2024-02-10T16:19:09.148Z,16.62
2024-02-10T16:21:36.089Z,16.68
2024-02-10T16:24:06.765Z,16.73
2024-02-10T16:26:34.312Z,16.37
2024-02-10T16:29:01.247Z,16.16
2024-02-10T16:31:28.174Z,16.00
2024-02-10T16:33:59.543Z,15.93
2024-02-10T16:36:30.870Z,16.09
2024-02-10T16:38:58.249Z,15.83
2024-02-10T16:41:27.843Z,15.92
2024-02-10T16:43:54.802Z,15.74
2024-02-10T16:46:23.627Z,16.28
2024-02-10T16:48:51.515Z,15.98
2024-02-10T16:51:34.433Z,16.02
2024-02-10T16:54:07.212Z,16.24
2024-02-10T16:56:37.555Z,15.98
2024-02-10T16:59:04.897Z,15.76
2024-02-10T17:01:32.401Z,15.87
2024-02-10T17:03:59.411Z,15.60
2024-02-10T17:06:26.323Z,15.87
2024-02-10T17:08:53.132Z,15.82
2024-02-10T17:11:19.989Z,15.85
2024-02-10T17:13:48.075Z,15.62
2024-02-10T17:16:16.894Z,15.75
2024-02-10T17:18:43.905Z,15.51
2024-02-10T17:21:10.821Z,15.85
2024-02-10T17:23:37.616Z,15.66
2024-02-10T17:26:08.481Z,15.51
2024-02-10T17:28:35.506Z,15.43
2024-02-10T17:31:02.454Z,15.39
2024-02-10T17:33:29.310Z,15.25
2024-02-10T17:35:56.288Z,15.06
2024-02-10T17:38:27.123Z,15.04
2024-02-10T17:40:57.185Z,14.92
2024-02-10T17:43:25.249Z,15.01
2024-02-10T17:45:53.888Z,14.97
2024-02-10T17:48:25.084Z,15.13
2024-02-10T17:50:54.133Z,15.31
2024-02-10T17:53:24.287Z,15.54
2024-02-10T17:55:57.377Z,15.41
2024-02-10T17:58:30.378Z,15.52
2024-02-10T18:00:57.812Z,15.55
2024-02-10T18:03:26.278Z,15.37
2024-02-10T18:05:57.778Z,15.53
2024-02-10T18:08:25.188Z,15.45
2024-02-10T18:10:52.331Z,15.46
2024-02-10T18:13:21.418Z,15.34
2024-02-10T18:15:48.423Z,14.83
2024-02-10T18:18:15.474Z,15.34
2024-02-10T18:20:42.443Z,15.89
2024-02-10T18:23:11.591Z,15.64
2024-02-10T18:25:43.583Z,15.88
2024-02-10T18:28:14.682Z,16.04
2024-02-10T18:30:46.432Z,15.90
2024-02-10T18:33:16.200Z,15.69
2024-02-10T18:35:44.086Z,15.82
2024-02-10T18:38:13.152Z,15.23
2024-02-10T18:40:40.398Z,14.84
2024-02-10T18:43:07.517Z,14.94
2024-02-10T18:45:35.553Z,14.88
2024-02-10T18:48:03.556Z,15.21
2024-02-10T18:50:31.398Z,15.00
2024-02-10T18:52:58.926Z,15.08
2024-02-10T18:55:26.538Z,14.58
2024-02-10T18:57:53.632Z,14.88
2024-02-10T19:00:21.134Z,14.69
2024-02-10T19:02:49.560Z,14.66
2024-02-10T19:05:17.704Z,14.93
2024-02-10T19:07:45.477Z,15.12
2024-02-10T19:10:12.547Z,15.04
2024-02-10T19:12:39.673Z,14.98
2024-02-10T19:15:11.126Z,14.98
2024-02-10T19:17:39.080Z,15.04
2024-02-10T19:20:12.518Z,15.04
2024-02-10T19:22:40.283Z,15.09
2024-02-10T19:25:08.170Z,15.26
2024-02-10T19:27:40.038Z,15.14
2024-02-10T19:30:11.441Z,14.97
2024-02-10T19:32:42.838Z,15.00
2024-02-10T19:35:21.319Z,15.16
2024-02-10T19:37:49.203Z,15.32
2024-02-10T19:40:20.647Z,15.40
2024-02-10T19:42:48.582Z,15.33
2024-02-10T19:45:17.702Z,15.30
2024-02-10T19:47:49.644Z,15.08
2024-02-10T19:50:19.628Z,14.93
2024-02-10T19:52:47.751Z,15.15
2024-02-10T19:55:15.795Z,14.61
2024-02-10T19:57:43.052Z,14.69
2024-02-10T20:00:16.670Z,14.18
2024-02-10T20:02:44.740Z,14.50
2024-02-10T20:05:13.629Z,14.10
2024-02-10T20:07:42.680Z,14.01
2024-02-10T20:10:10.441Z,13.97
2024-02-10T20:12:39.961Z,13.51
2024-02-10T20:15:07.593Z,13.62
2024-02-10T20:17:34.585Z,14.18
2024-02-10T20:20:08.261Z,14.07
2024-02-10T20:22:35.688Z,14.01
2024-02-10T20:25:05.795Z,13.97
2024-02-10T20:27:32.640Z,13.91
2024-02-10T20:30:00.525Z,14.48
2024-02-10T20:32:28.068Z,14.11
2024-02-10T20:34:55.271Z,14.27
2024-02-10T20:37:22.192Z,13.92
2024-02-10T20:39:50.790Z,13.16
2024-02-10T20:42:18.743Z,13.70
2024-02-10T20:44:48.417Z,13.22
2024-02-10T20:47:15.943Z,13.18
2024-02-10T20:49:44.050Z,13.65
2024-02-10T20:52:12.814Z,13.59
2024-02-10T20:54:39.615Z,13.18
2024-02-10T20:57:07.316Z,12.85
2024-02-10T20:59:34.249Z,13.09
2024-02-10T21:02:01.170Z,12.89
2024-02-10T21:04:28.225Z,13.20
2024-02-10T21:06:55.582Z,12.90
2024-02-10T21:09:24.995Z,12.83
2024-02-10T21:11:51.899Z,13.03
2024-02-10T21:14:18.807Z,13.27
2024-02-10T21:16:47.718Z,13.29
2024-02-10T21:19:15.388Z,12.98
2024-02-10T21:21:43.017Z,12.72
2024-02-10T21:24:10.108Z,12.57
2024-02-10T21:26:37.592Z,12.83
2024-02-10T21:29:07.426Z,12.43
2024-02-10T21:31:37.719Z,12.91
2024-02-10T21:34:06.101Z,12.73
2024-02-10T21:36:35.840Z,12.20
2024-02-10T21:39:19.444Z,12.31
2024-02-10T21:41:49.082Z,12.47
2024-02-10T21:44:16.368Z,12.11
2024-02-10T21:46:43.496Z,12.10
2024-02-10T21:49:11.126Z,12.28
2024-02-10T21:51:38.719Z,12.22
2024-02-10T21:54:06.793Z,12.08
2024-02-10T21:56:42.910Z,11.71
2024-02-10T21:59:12.912Z,12.14
2024-02-10T22:01:40.431Z,11.99
2024-02-10T22:04:08.604Z,11.69
2024-02-10T22:06:35.706Z,11.66
2024-02-10T22:09:06.112Z,12.03
2024-02-10T22:11:33.235Z,11.68
2024-02-10T22:14:00.560Z,11.64
2024-02-10T22:16:27.627Z,11.85
2024-02-10T22:18:55.164Z,11.42
2024-02-10T22:21:23.561Z,11.59
2024-02-10T22:23:51.428Z,11.87
2024-02-10T22:26:22.777Z,11.85
2024-02-10T22:28:49.745Z,11.89
2024-02-10T22:31:17.388Z,11.70
2024-02-10T22:33:44.553Z,11.66
2024-02-10T22:36:12.710Z,11.86
2024-02-10T22:38:40.051Z,12.05
2024-02-10T22:41:07.751Z,11.97
2024-02-10T22:43:34.804Z,12.02
2024-02-10T22:46:01.866Z,11.75
2024-02-10T22:48:28.859Z,12.16
2024-02-10T22:50:55.783Z,11.85
2024-02-10T22:53:23.625Z,12.39
2024-02-10T22:55:50.605Z,12.11
2024-02-10T22:58:17.690Z,12.42
2024-02-10T23:00:54.661Z,12.35
2024-02-10T23:03:21.685Z,12.35
2024-02-10T23:05:51.948Z,12.57
2024-02-10T23:08:21.399Z,12.63
2024-02-10T23:10:49.050Z,12.97
2024-02-10T23:13:22.078Z,12.65
2024-02-10T23:15:49.630Z,12.74
2024-02-10T23:18:19.990Z,12.93
2024-02-10T23:20:48.748Z,13.30
2024-02-10T23:23:19.275Z,13.35
2024-02-10T23:25:48.156Z,13.20
2024-02-10T23:28:18.422Z,13.58
2024-02-10T23:30:52.757Z,13.36
2024-02-10T23:33:24.539Z,13.66
2024-02-10T23:35:52.026Z,13.44
2024-02-10T23:38:19.096Z,13.13
2024-02-10T23:40:47.011Z,13.20
2024-02-10T23:43:14.058Z,13.37
2024-02-10T23:45:45.327Z,13.35
2024-02-10T23:48:12.400Z,12.86
2024-02-10T23:50:39.404Z,12.93
2024-02-10T23:53:06.486Z,13.27
2024-02-10T23:55:34.931Z,12.94
2024-02-10T23:58:02.560Z,12.72
